Artois, CA (95913)

7:16 AM PDT on September 25, 2016 (GMT -0700)
NASA North Location | | Change Station
Active Advisory: Fire Weather Warning

Elev 243 ft 39.78 °N, 122.16 °W | Updated 1 minute ago

Clear
Clear
77.5 °F
Feels Like 77 °F
N
6.3
Wind Variable Wind from North

Today
High -- | Low -- °F
--% Chance of Precip.
Yesterday
High -- | Low -- °F
Precip. -- in
Pressure 30.10 in
Visibility 40.0 miles
Clouds Clear
Heat Index 77 °F
Dew Point 37 °F
Humidity 23%
Rainfall 0.00 in
Snow Depth Not available.
6:59 AM 6:59 PM
Waning Crescent, 27% visible
METAR KCIC 251347Z 00000KT 40SM SKC 17/M02 A3010
Pressure 30.10 in
Visibility 40.0 miles
Clouds Clear
Heat Index 77 °F
Dew Point 37 °F
Humidity 23%
Rainfall 0.00 in
Snow Depth Not available.
6:59 AM 6:59 PM
Waning Crescent, 27% visible
METAR KCIC 251347Z 00000KT 40SM SKC 17/M02 A3010

10-Day Weather Forecast

Almanac

Astronomy

Sep. 25, 2016 Rise Set
Actual Time
Civil Twilight
Nautical Twilight
Astronomical Twilight
Moon
Length of Visible Light
Length of Day
Tomorrow will be .
, % of the Moon is Illuminated

Today's Extremes

State Highs State Lows

Community

WunderPhotos

Upload Photos

1,941,618 photos uploaded!

WunderBlog® & News

Nearby

Air Quality

  Air Quality AQ Index Pollutant
Not available.

Snow Depth

Station Depth Elevation

Earthquake Activity

City Distance Mag. Time & Date
Minimum magnitude displayed is 2.5.

Coastal Water Temperatures

Place Temperature

Stations

Nearby Weather Stations

Station Location Temp. Windchill Dew Point Humidity Wind Precip. Elev Updated Type
                   

Watches & Warnings

Fire Weather Warning
Issued: 3:00 AM PDT Sep. 25, 2016 – National Weather Service

... Red flag warning remains in effect until 6 PM PDT this evening
for gusty north winds and low humidity for fire weather zones
213... 215... 216... 217... 263... 264... 266... 268 and 279...

* affected area... fire weather zone 213. Fire weather zone 215.
Fire weather zone 216. Fire weather zone 217. Fire weather
zone 263. Fire weather zone 264. Fire weather zone 266. Fire
weather zone 268. Fire weather zone 279.

* Wind... north to northeast 15-30 mph. Strongest winds across the
Sierra will occur this morning.

* Humidity... afternoon minimum 5 to 15 percent today. Poor
overnight recovery of only 20 to 40 percent.

* Impacts... rapid spread of any fire starts likely.

Precautionary/preparedness actions...

A red flag warning means that critical fire weather conditions
are either occurring now... .or will shortly. A combination of
strong winds... low relative humidity... and warm temperatures can
contribute to extreme fire behavior.


Interact with US via social media
www.Facebook.Com/NWS.Sacramento
www.Twitter.Com/nwssacramento